Time,TemperatureF,DewpointF,PressureIn,WindDirection,WindDirectionDegrees,WindSpeedMPH,WindSpeedGustMPH,Humidity,HourlyPrecipIn,Conditions,Clouds,dailyrainin,SolarRadiationWatts/m^2,SoftwareType,DateUTC
2013-11-02 00:01:00,51.1,49.4,29.80,North,0,0.0,0.0,94,0.00,CLR,FEW,0.12,0.0,WeatherDisplay:10.37,2013-11-02 05:01:00,
2013-11-02 00:06:00,50.9,49.2,29.80,North,0,0.0,0.0,94,0.00,CLR,FEW,0.12,0.0,WeatherDisplay:10.37,2013-11-02 05:06:00,
2013-11-02 00:11:00,50.7,49.3,29.80,North,0,0.0,0.0,95,0.00,CLR,FEW,0.12,0.0,WeatherDisplay:10.37,2013-11-02 05:11:00,
2013-11-02 00:16:00,50.7,49.3,29.80,North,0,0.0,0.0,95,0.00,CLR,FEW,0.12,0.0,WeatherDisplay:10.37,2013-11-02 05:16:00,
2013-11-02 00:21:00,50.7,49.3,29.80,North,0,0.0,0.0,95,0.00,CLR,FEW,0.12,0.0,WeatherDisplay:10.37,2013-11-02 05:21:00,
2013-11-02 00:26:00,50.7,49.3,29.80,North,0,0.0,0.0,95,0.00,CLR,FEW,0.12,0.0,WeatherDisplay:10.37,2013-11-02 05:26:00,
2013-11-02 00:31:00,50.5,49.2,29.80,North,0,0.0,0.0,95,0.00,CLR,FEW,0.12,0.0,WeatherDisplay:10.37,2013-11-02 05:31:00,
2013-11-02 00:36:00,50.4,49.0,29.80,North,0,0.0,0.0,95,0.00,CLR,FEW,0.12,0.0,WeatherDisplay:10.37,2013-11-02 05:36:00,
2013-11-02 00:41:00,50.2,48.8,29.80,North,0,0.0,0.0,95,0.00,CLR,FEW,0.12,0.0,WeatherDisplay:10.37,2013-11-02 05:41:00,
2013-11-02 00:46:00,50.0,48.9,29.80,North,0,0.0,0.0,96,0.00,CLR,FEW,0.12,0.0,WeatherDisplay:10.37,2013-11-02 05:46:00,
2013-11-02 00:51:00,50.0,48.9,29.80,North,0,0.0,0.0,96,0.00,CLR,FEW,0.12,0.0,WeatherDisplay:10.37,2013-11-02 05:51:00,
2013-11-02 00:56:00,49.8,48.7,29.80,North,0,0.0,0.0,96,0.00,CLR,FEW,0.12,0.0,WeatherDisplay:10.37,2013-11-02 05:56:00,
2013-11-02 01:01:00,49.6,48.5,29.80,North,0,0.0,0.0,96,0.00,RA,FEW,0.00,0.0,WeatherDisplay:10.37,2013-11-02 06:01:00,
2013-11-02 01:06:00,49.5,48.6,29.80,North,0,0.0,0.0,97,0.00,CLR,FEW,0.00,0.0,WeatherDisplay:10.37,2013-11-02 06:06:00,
2013-11-02 01:11:00,49.5,48.6,29.80,North,0,0.0,0.0,97,0.00,CLR,FEW,0.00,0.0,WeatherDisplay:10.37,2013-11-02 06:11:00,
2013-11-02 01:16:00,49.3,48.5,29.80,North,0,0.0,0.0,97,0.00,CLR,FEW,0.00,0.0,WeatherDisplay:10.37,2013-11-02 06:16:00,
2013-11-02 01:21:00,49.3,48.5,29.80,North,0,0.0,0.0,97,0.00,CLR,FEW,0.00,0.0,WeatherDisplay:10.37,2013-11-02 06:21:00,
2013-11-02 01:26:00,49.3,48.5,29.80,North,0,0.0,0.0,97,0.00,CLR,FEW,0.00,0.0,WeatherDisplay:10.37,2013-11-02 06:26:00,
2013-11-02 01:31:00,49.1,48.3,29.80,North,0,0.0,0.0,97,0.00,CLR,FEW,0.00,0.0,WeatherDisplay:10.37,2013-11-02 06:31:00,
2013-11-02 01:36:00,48.9,48.1,29.80,North,0,0.0,0.0,97,0.00,CLR,FEW,0.00,0.0,WeatherDisplay:10.37,2013-11-02 06:36:00,
2013-11-02 01:41:00,48.7,47.9,29.80,North,0,0.0,0.0,97,0.00,CLR,FEW,0.00,0.0,WeatherDisplay:10.37,2013-11-02 06:41:00,
2013-11-02 01:46:00,48.7,47.9,29.80,North,0,0.0,0.0,97,0.00,CLR,FEW,0.00,0.0,WeatherDisplay:10.37,2013-11-02 06:46:00,
2013-11-02 01:51:00,48.6,47.7,29.80,North,0,0.0,0.0,97,0.00,CLR,FEW,0.00,0.0,WeatherDisplay:10.37,2013-11-02 06:51:00,
2013-11-02 01:56:00,48.6,47.7,29.80,North,0,0.0,0.0,97,0.00,CLR,FEW,0.00,0.0,WeatherDisplay:10.37,2013-11-02 06:56:00,
2013-11-02 02:01:00,48.4,47.6,29.80,North,0,0.0,0.0,97,0.00,CLR,FEW,0.00,0.0,WeatherDisplay:10.37,2013-11-02 07:01:00,
2013-11-02 02:06:00,48.4,47.6,29.80,North,0,0.0,0.0,97,0.00,CLR,FEW,0.00,0.0,WeatherDisplay:10.37,2013-11-02 07:06:00,
2013-11-02 02:11:00,48.2,47.4,29.80,North,0,0.0,0.0,97,0.00,CLR,FEW,0.00,0.0,WeatherDisplay:10.37,2013-11-02 07:11:00,
2013-11-02 02:16:00,48.2,47.4,29.80,North,0,0.0,0.0,97,0.00,CLR,FEW,0.00,0.0,WeatherDisplay:10.37,2013-11-02 07:16:00,
2013-11-02 02:21:00,48.2,47.4,29.80,North,0,0.0,0.0,97,0.00,CLR,FEW,0.00,0.0,WeatherDisplay:10.37,2013-11-02 07:21:00,
2013-11-02 02:26:00,48.0,47.2,29.80,North,0,0.0,0.0,97,0.00,CLR,FEW,0.00,0.0,WeatherDisplay:10.37,2013-11-02 07:26:00,
2013-11-02 02:31:00,48.0,47.2,29.80,North,0,0.0,0.0,97,0.00,CLR,FEW,0.00,0.0,WeatherDisplay:10.37,2013-11-02 07:31:00,
2013-11-02 02:36:00,47.8,47.0,29.80,North,0,0.0,0.0,97,0.00,CLR,FEW,0.00,0.0,WeatherDisplay:10.37,2013-11-02 07:36:00,
2013-11-02 02:41:00,47.8,47.0,29.80,North,0,0.0,0.0,97,0.00,CLR,FEW,0.00,0.0,WeatherDisplay:10.37,2013-11-02 07:41:00,
2013-11-02 02:46:00,47.7,46.9,29.80,North,0,0.0,0.0,97,0.00,CLR,FEW,0.00,0.0,WeatherDisplay:10.37,2013-11-02 07:46:00,
2013-11-02 02:51:00,47.7,46.9,29.80,North,0,0.0,0.0,97,0.00,CLR,FEW,0.00,0.0,WeatherDisplay:10.37,2013-11-02 07:51:00,
2013-11-02 02:56:00,47.7,46.9,29.80,North,0,0.0,0.0,97,0.00,CLR,FEW,0.00,0.0,WeatherDisplay:10.37,2013-11-02 07:56:00,
2013-11-02 03:01:00,47.7,46.9,29.80,North,0,0.0,0.0,97,0.00,CLR,FEW,0.00,0.0,WeatherDisplay:10.37,2013-11-02 08:01:00,
2013-11-02 03:06:00,47.5,46.7,29.80,North,0,0.0,0.0,97,0.00,CLR,FEW,0.00,0.0,WeatherDisplay:10.37,2013-11-02 08:06:00,
2013-11-02 03:11:00,47.5,46.7,29.80,North,0,0.0,0.0,97,0.00,CLR,FEW,0.00,0.0,WeatherDisplay:10.37,2013-11-02 08:11:00,
2013-11-02 03:16:00,47.5,46.7,29.80,North,0,0.0,0.0,97,0.00,CLR,FEW,0.00,0.0,WeatherDisplay:10.37,2013-11-02 08:16:00,
2013-11-02 03:21:00,47.5,46.7,29.80,North,0,0.0,0.0,97,0.00,CLR,FEW,0.00,0.0,WeatherDisplay:10.37,2013-11-02 08:21:00,
2013-11-02 03:26:00,47.3,46.5,29.77,North,0,0.0,0.0,97,0.00,CLR,FEW,0.00,0.0,WeatherDisplay:10.37,2013-11-02 08:26:00,
2013-11-02 03:31:00,47.5,46.7,29.77,North,0,0.0,0.0,97,0.00,CLR,FEW,0.00,0.0,WeatherDisplay:10.37,2013-11-02 08:31:00,
2013-11-02 03:36:00,47.5,46.7,29.77,North,0,0.0,0.0,97,0.00,CLR,FEW,0.00,0.0,WeatherDisplay:10.37,2013-11-02 08:36:00,
2013-11-02 03:41:00,47.5,46.7,29.80,North,0,0.0,0.0,97,0.00,CLR,FEW,0.00,0.0,WeatherDisplay:10.37,2013-11-02 08:41:00,
2013-11-02 03:46:00,47.5,46.7,29.80,North,0,0.0,0.0,97,0.00,CLR,FEW,0.00,0.0,WeatherDisplay:10.37,2013-11-02 08:46:00,
2013-11-02 03:51:00,47.5,46.7,29.80,North,0,0.0,0.0,97,0.00,CLR,FEW,0.00,0.0,WeatherDisplay:10.37,2013-11-02 08:51:00,
2013-11-02 03:56:00,47.5,46.7,29.80,North,0,0.0,0.0,97,0.00,CLR,FEW,0.00,0.0,WeatherDisplay:10.37,2013-11-02 08:56:00,
2013-11-02 04:01:00,47.5,46.7,29.80,North,0,0.0,0.0,97,0.00,CLR,FEW,0.00,0.0,WeatherDisplay:10.37,2013-11-02 09:01:00,
2013-11-02 04:06:00,47.5,46.7,29.80,North,0,0.0,0.0,97,0.00,CLR,FEW,0.00,0.0,WeatherDisplay:10.37,2013-11-02 09:06:00,
2013-11-02 04:11:00,47.3,46.5,29.80,North,0,0.0,0.0,97,0.00,CLR,FEW,0.00,0.0,WeatherDisplay:10.37,2013-11-02 09:11:00,
2013-11-02 04:16:00,47.3,46.5,29.80,North,0,0.0,0.0,97,0.00,CLR,FEW,0.00,0.0,WeatherDisplay:10.37,2013-11-02 09:16:00,
2013-11-02 04:21:00,47.1,46.3,29.80,North,0,0.0,0.0,97,0.00,CLR,FEW,0.00,0.0,WeatherDisplay:10.37,2013-11-02 09:21:00,
2013-11-02 04:26:00,47.1,46.3,29.80,NNW,338,0.0,0.0,97,0.00,CLR,FEW,0.00,0.0,WeatherDisplay:10.37,2013-11-02 09:26:00,
2013-11-02 04:31:00,47.3,46.5,29.80,NNW,338,0.0,0.0,97,0.00,CLR,FEW,0.00,0.0,WeatherDisplay:10.37,2013-11-02 09:31:00,
2013-11-02 04:36:00,47.3,46.5,29.80,NNW,338,0.0,0.0,97,0.00,CLR,FEW,0.00,0.0,WeatherDisplay:10.37,2013-11-02 09:36:00,
2013-11-02 04:41:00,47.5,46.7,29.80,NNW,338,0.0,0.0,97,0.00,CLR,FEW,0.00,0.0,WeatherDisplay:10.37,2013-11-02 09:41:00,
2013-11-02 04:46:00,47.3,46.5,29.80,NNW,338,0.0,0.0,97,0.00,CLR,FEW,0.00,0.0,WeatherDisplay:10.37,2013-11-02 09:46:00,
2013-11-02 04:51:00,47.1,46.3,29.80,NNW,338,0.0,0.0,97,0.00,CLR,FEW,0.00,0.0,WeatherDisplay:10.37,2013-11-02 09:51:00,
2013-11-02 04:56:00,47.3,46.5,29.80,NNW,338,0.0,0.0,97,0.00,CLR,FEW,0.00,0.0,WeatherDisplay:10.37,2013-11-02 09:56:00,
2013-11-02 05:01:00,47.3,46.5,29.80,NNW,338,0.0,0.0,97,0.00,CLR,FEW,0.00,0.0,WeatherDisplay:10.37,2013-11-02 10:01:00,
2013-11-02 05:06:00,47.5,46.7,29.80,NNW,338,0.0,0.0,97,0.00,CLR,FEW,0.00,0.0,WeatherDisplay:10.37,2013-11-02 10:06:00,
2013-11-02 05:11:00,47.7,46.9,29.77,NW,315,1.4,0.0,97,0.00,CLR,FEW,0.00,0.0,WeatherDisplay:10.37,2013-11-02 10:11:00,
2013-11-02 05:16:00,47.8,47.0,29.77,North,0,1.2,0.0,97,0.00,CLR,FEW,0.00,0.0,WeatherDisplay:10.37,2013-11-02 10:16:00,
2013-11-02 05:21:00,47.8,47.0,29.77,NNW,338,1.4,1.4,97,0.00,CLR,FEW,0.00,0.0,WeatherDisplay:10.37,2013-11-02 10:21:00,
2013-11-02 05:26:00,48.0,47.2,29.80,NNW,338,1.2,0.0,97,0.00,CLR,FEW,0.00,0.0,WeatherDisplay:10.37,2013-11-02 10:26:00,
2013-11-02 05:31:00,47.8,47.0,29.80,NNW,338,0.0,0.0,97,0.00,CLR,FEW,0.00,0.0,WeatherDisplay:10.37,2013-11-02 10:31:00,
2013-11-02 05:36:00,47.8,47.0,29.80,NNW,338,0.0,0.0,97,0.00,CLR,FEW,0.00,0.0,WeatherDisplay:10.37,2013-11-02 10:36:00,
2013-11-02 05:41:00,47.7,46.9,29.80,NNW,338,0.0,0.0,97,0.00,CLR,FEW,0.00,0.0,WeatherDisplay:10.37,2013-11-02 10:41:00,
2013-11-02 05:46:00,47.8,47.0,29.80,NNW,338,0.0,0.0,97,0.00,CLR,FEW,0.00,0.0,WeatherDisplay:10.37,2013-11-02 10:46:00,
2013-11-02 05:51:00,47.8,47.0,29.80,NNW,338,0.0,0.0,97,0.00,CLR,FEW,0.00,0.0,WeatherDisplay:10.37,2013-11-02 10:51:00,
2013-11-02 05:56:00,48.0,47.2,29.80,North,0,1.2,0.0,97,0.00,CLR,FEW,0.00,0.0,WeatherDisplay:10.37,2013-11-02 10:56:00,
2013-11-02 06:01:00,48.0,47.2,29.80,NNW,338,0.0,0.0,97,0.00,FEW,,0.00,0.0,WeatherDisplay:10.37,2013-11-02 11:01:00,
2013-11-02 06:06:00,48.0,47.2,29.80,NNW,338,1.2,0.0,97,0.00,FEW,,0.00,0.0,WeatherDisplay:10.37,2013-11-02 11:06:00,
2013-11-02 06:11:00,48.0,47.2,29.83,NNW,338,0.0,0.0,97,0.00,FEW,,0.00,0.0,WeatherDisplay:10.37,2013-11-02 11:11:00,
2013-11-02 06:16:00,48.0,47.2,29.83,North,0,1.6,1.6,97,0.00,FEW,,0.00,0.0,WeatherDisplay:10.37,2013-11-02 11:16:00,
2013-11-02 06:21:00,48.2,47.4,29.83,NNW,338,1.6,1.6,97,0.00,FEW,,0.00,0.0,WeatherDisplay:10.37,2013-11-02 11:21:00,
2013-11-02 06:26:00,48.6,47.7,29.83,NNW,338,2.3,2.3,97,0.00,FEW,,0.00,0.0,WeatherDisplay:10.37,2013-11-02 11:26:00,
2013-11-02 06:31:00,48.7,47.9,29.83,NNW,338,2.3,2.3,97,0.00,FEW,,0.00,0.0,WeatherDisplay:10.37,2013-11-02 11:31:00,
2013-11-02 06:36:00,49.1,48.3,29.83,NNW,338,2.3,2.3,97,0.00,FEW,,0.00,0.0,WeatherDisplay:10.37,2013-11-02 11:36:00,
2013-11-02 06:41:00,49.3,48.5,29.83,NNW,338,2.3,2.3,97,0.00,FEW,,0.00,0.0,WeatherDisplay:10.37,2013-11-02 11:41:00,
2013-11-02 06:46:00,49.6,48.8,29.83,NW,315,2.3,2.3,97,0.00,FEW,,0.00,0.0,WeatherDisplay:10.37,2013-11-02 11:46:00,
2013-11-02 06:51:00,50.0,49.2,29.83,NNW,338,2.3,2.3,97,0.00,FEW,,0.00,0.0,WeatherDisplay:10.37,2013-11-02 11:51:00,
2013-11-02 06:56:00,50.4,49.3,29.86,NNW,338,2.0,2.0,96,0.00,FEW,,0.00,0.0,WeatherDisplay:10.37,2013-11-02 11:56:00,
2013-11-02 07:01:00,50.7,49.6,29.86,NNW,338,2.3,2.3,96,0.00,OVC,FEW,0.00,0.0,WeatherDisplay:10.37,2013-11-02 12:01:00,
2013-11-02 07:06:00,50.9,49.5,29.86,NW,315,1.2,1.2,95,0.00,OVC,FEW,0.00,0.0,WeatherDisplay:10.37,2013-11-02 12:06:00,
2013-11-02 07:11:00,51.1,49.7,29.86,NNW,338,1.2,1.2,95,0.00,OVC,FEW,0.00,0.0,WeatherDisplay:10.37,2013-11-02 12:11:00,
2013-11-02 07:16:00,51.4,50.1,29.86,NW,315,1.2,0.0,95,0.00,OVC,FEW,0.00,0.0,WeatherDisplay:10.37,2013-11-02 12:16:00,
2013-11-02 07:21:00,51.6,49.9,29.86,NNW,338,0.0,0.0,94,0.00,OVC,FEW,0.00,0.0,WeatherDisplay:10.37,2013-11-02 12:21:00,
2013-11-02 07:26:00,51.8,50.1,29.86,NNW,338,0.0,0.0,94,0.00,OVC,FEW,0.00,0.0,WeatherDisplay:10.37,2013-11-02 12:26:00,
2013-11-02 07:31:00,51.8,50.1,29.86,NNW,338,0.0,0.0,94,0.00,OVC,FEW,0.00,0.0,WeatherDisplay:10.37,2013-11-02 12:31:00,
2013-11-02 07:36:00,51.8,50.1,29.86,NNW,338,0.0,0.0,94,0.00,OVC,FEW,0.00,0.0,WeatherDisplay:10.37,2013-11-02 12:36:00,
2013-11-02 07:41:00,51.8,50.1,29.86,NNW,338,0.0,0.0,94,0.00,OVC,FEW,0.00,0.0,WeatherDisplay:10.37,2013-11-02 12:41:00,
2013-11-02 07:46:00,52.0,50.3,29.86,NNW,338,0.0,0.0,94,0.00,OVC,FEW,0.00,0.0,WeatherDisplay:10.37,2013-11-02 12:46:00,
2013-11-02 07:51:00,52.2,50.8,29.86,NNW,338,0.0,0.0,95,0.00,OVC,FEW,0.00,0.0,WeatherDisplay:10.37,2013-11-02 12:51:00,
2013-11-02 07:56:00,52.2,50.5,29.86,NNW,338,0.0,0.0,94,0.00,OVC,FEW,0.00,0.0,WeatherDisplay:10.37,2013-11-02 12:56:00,
2013-11-02 08:01:00,52.3,50.7,29.86,NNW,338,0.0,0.0,94,0.00,OVC,FEW,0.00,0.0,WeatherDisplay:10.37,2013-11-02 13:01:00,
2013-11-02 08:06:00,52.7,51.3,29.86,NNW,338,0.0,0.0,95,0.00,OVC,FEW,0.00,0.0,WeatherDisplay:10.37,2013-11-02 13:06:00,
2013-11-02 08:11:00,53.8,52.1,29.83,NNW,338,0.0,0.0,94,0.00,OVC,FEW,0.00,0.0,WeatherDisplay:10.37,2013-11-02 13:11:00,
2013-11-02 08:16:00,54.9,53.2,29.83,North,0,1.2,1.2,94,0.00,OVC,FEW,0.00,0.0,WeatherDisplay:10.37,2013-11-02 13:16:00,
2013-11-02 08:21:00,54.9,52.6,29.83,NW,315,2.3,2.3,92,0.00,OVC,FEW,0.00,0.0,WeatherDisplay:10.37,2013-11-02 13:21:00,
2013-11-02 08:26:00,54.7,51.8,29.86,NNW,338,0.0,0.0,90,0.00,OVC,FEW,0.00,0.0,WeatherDisplay:10.37,2013-11-02 13:26:00,
2013-11-02 08:31:00,56.3,53.4,29.86,NNW,338,1.2,1.2,90,0.00,OVC,FEW,0.00,0.0,WeatherDisplay:10.37,2013-11-02 13:31:00,
2013-11-02 08:36:00,58.8,55.6,29.86,NW,315,1.2,0.0,89,0.00,OVC,FEW,0.00,0.0,WeatherDisplay:10.37,2013-11-02 13:36:00,
2013-11-02 08:41:00,60.3,56.1,29.86,North,0,2.3,0.0,86,0.00,OVC,FEW,0.00,0.0,WeatherDisplay:10.37,2013-11-02 13:41:00,
2013-11-02 08:46:00,60.4,54.9,29.86,North,0,2.3,0.0,82,0.00,OVC,FEW,0.00,0.0,WeatherDisplay:10.37,2013-11-02 13:46:00,
2013-11-02 08:51:00,60.4,53.9,29.86,NNW,338,2.3,2.3,79,0.00,OVC,FEW,0.00,0.0,WeatherDisplay:10.37,2013-11-02 13:51:00,
2013-11-02 08:56:00,62.8,56.2,29.86,NNW,338,1.2,1.2,79,0.00,OVC,FEW,0.00,0.0,WeatherDisplay:10.37,2013-11-02 13:56:00,
2013-11-02 09:02:00,64.2,56.5,29.86,NNW,338,2.3,2.3,76,0.00,CLR,FEW,0.00,0.0,WeatherDisplay:10.37,2013-11-02 14:02:00,
2013-11-02 09:07:00,65.5,55.0,29.86,NNW,338,2.3,2.3,69,0.00,CLR,FEW,0.00,0.0,WeatherDisplay:10.37,2013-11-02 14:07:00,
2013-11-02 09:12:00,66.6,55.7,29.89,NNW,338,2.3,2.3,68,0.00,CLR,FEW,0.00,0.0,WeatherDisplay:10.37,2013-11-02 14:12:00,
2013-11-02 09:17:00,67.6,56.3,29.89,NNE,22,2.3,2.3,67,0.00,CLR,FEW,0.00,0.0,WeatherDisplay:10.37,2013-11-02 14:17:00,
2013-11-02 09:22:00,68.0,55.4,29.89,NNW,338,2.3,2.3,64,0.00,CLR,FEW,0.00,0.0,WeatherDisplay:10.37,2013-11-02 14:22:00,
2013-11-02 09:27:00,69.1,55.5,29.89,NE,45,2.3,2.3,62,0.00,CLR,FEW,0.00,0.0,WeatherDisplay:10.37,2013-11-02 14:27:00,
2013-11-02 09:32:00,70.3,56.2,29.89,NNE,22,2.3,2.3,61,0.00,CLR,FEW,0.00,0.0,WeatherDisplay:10.37,2013-11-02 14:32:00,
2013-11-02 09:37:00,70.9,55.8,29.89,NNW,338,1.2,1.2,59,0.00,CLR,FEW,0.00,0.0,WeatherDisplay:10.37,2013-11-02 14:37:00,
2013-11-02 09:42:00,72.0,55.9,29.89,North,0,2.3,2.3,57,0.00,CLR,FEW,0.00,0.0,WeatherDisplay:10.37,2013-11-02 14:42:00,
2013-11-02 09:47:00,72.1,54.6,29.89,NNW,338,2.3,2.3,54,0.00,CLR,FEW,0.00,0.0,WeatherDisplay:10.37,2013-11-02 14:47:00,
2013-11-02 09:52:00,73.0,55.4,29.89,NW,315,2.3,2.3,54,0.00,CLR,FEW,0.00,0.0,WeatherDisplay:10.37,2013-11-02 14:52:00,
2013-11-02 09:57:00,73.6,53.2,29.89,NNW,338,3.5,3.5,49,0.00,CLR,FEW,0.00,0.0,WeatherDisplay:10.37,2013-11-02 14:57:00,
2013-11-02 10:02:00,74.1,53.7,29.89,NW,315,2.3,2.3,49,0.00,CLR,FEW,0.00,0.0,WeatherDisplay:10.37,2013-11-02 15:02:00,
2013-11-02 10:07:00,74.7,54.8,29.89,NW,315,2.0,2.0,50,0.00,CLR,FEW,0.00,0.0,WeatherDisplay:10.37,2013-11-02 15:07:00,
2013-11-02 10:12:00,75.0,54.0,29.89,NNW,338,2.3,2.3,48,0.00,CLR,FEW,0.00,0.0,WeatherDisplay:10.37,2013-11-02 15:12:00,
2013-11-02 10:17:00,75.0,54.0,29.89,NW,315,2.3,2.3,48,0.00,CLR,FEW,0.00,0.0,WeatherDisplay:10.37,2013-11-02 15:17:00,
2013-11-02 10:22:00,74.7,52.5,29.89,NW,315,3.5,3.5,46,0.00,CLR,FEW,0.00,0.0,WeatherDisplay:10.37,2013-11-02 15:22:00,
2013-11-02 10:27:00,74.3,52.8,29.89,NE,45,2.3,2.3,47,0.00,CLR,FEW,0.00,0.0,WeatherDisplay:10.37,2013-11-02 15:27:00,
2013-11-02 10:32:00,74.5,52.3,29.89,NW,315,2.3,2.3,46,0.00,CLR,FEW,0.00,0.0,WeatherDisplay:10.37,2013-11-02 15:32:00,
2013-11-02 10:37:00,74.5,52.3,29.89,North,0,3.5,3.5,46,0.00,CLR,FEW,0.00,0.0,WeatherDisplay:10.37,2013-11-02 15:37:00,
2013-11-02 10:42:00,74.3,51.6,29.92,NW,315,4.6,4.6,45,0.00,CLR,FEW,0.00,0.0,WeatherDisplay:10.37,2013-11-02 15:42:00,
2013-11-02 10:47:00,73.6,50.3,29.92,NW,315,3.5,3.5,44,0.00,CLR,FEW,0.00,0.0,WeatherDisplay:10.37,2013-11-02 15:47:00,
2013-11-02 10:52:00,73.8,50.5,29.92,NW,315,3.5,3.5,44,0.00,CLR,FEW,0.00,0.0,WeatherDisplay:10.37,2013-11-02 15:52:00,
2013-11-02 10:57:00,74.3,51.0,29.92,NNW,338,3.6,3.8,44,0.00,CLR,FEW,0.00,0.0,WeatherDisplay:10.37,2013-11-02 15:57:00,
2013-11-02 11:02:00,74.8,52.1,29.92,ESE,112,2.3,2.3,45,0.00,CLR,FEW,0.00,0.0,WeatherDisplay:10.37,2013-11-02 16:02:00,
2013-11-02 11:07:00,75.2,51.8,29.92,NW,315,3.5,3.5,44,0.00,CLR,FEW,0.00,0.0,WeatherDisplay:10.37,2013-11-02 16:07:00,
2013-11-02 11:12:00,75.9,52.4,29.92,SSW,202,2.3,2.3,44,0.00,CLR,FEW,0.00,0.0,WeatherDisplay:10.37,2013-11-02 16:12:00,
2013-11-02 11:17:00,75.9,51.8,29.92,NNW,338,3.5,3.5,43,0.00,CLR,FEW,0.00,0.0,WeatherDisplay:10.37,2013-11-02 16:17:00,
2013-11-02 11:22:00,76.1,52.0,29.92,NNE,22,3.5,3.5,43,0.00,CLR,FEW,0.00,0.0,WeatherDisplay:10.37,2013-11-02 16:22:00,
2013-11-02 11:27:00,76.8,52.0,29.89,East,90,3.5,3.5,42,0.00,CLR,FEW,0.00,0.0,WeatherDisplay:10.37,2013-11-02 16:27:00,
2013-11-02 11:32:00,77.4,51.8,29.89,West,270,3.5,3.5,41,0.00,CLR,FEW,0.00,0.0,WeatherDisplay:10.37,2013-11-02 16:32:00,
2013-11-02 11:37:00,77.7,52.1,29.89,NNW,338,4.0,4.0,41,0.00,CLR,FEW,0.00,0.0,WeatherDisplay:10.37,2013-11-02 16:37:00,
2013-11-02 11:42:00,77.7,52.1,29.89,NNE,22,3.5,3.5,41,0.00,CLR,FEW,0.00,0.0,WeatherDisplay:10.37,2013-11-02 16:42:00,
2013-11-02 11:47:00,78.1,52.5,29.89,WNW,292,3.5,3.5,41,0.00,CLR,FEW,0.00,0.0,WeatherDisplay:10.37,2013-11-02 16:47:00,
2013-11-02 11:52:00,78.4,52.1,29.89,North,0,3.5,3.5,40,0.00,CLR,FEW,0.00,0.0,WeatherDisplay:10.37,2013-11-02 16:52:00,
2013-11-02 11:57:00,78.8,52.4,29.92,North,0,2.3,2.3,40,0.00,CLR,FEW,0.00,0.0,WeatherDisplay:10.37,2013-11-02 16:57:00,
2013-11-02 12:02:00,78.8,51.7,29.92,NNE,22,2.3,2.3,39,0.00,CLR,FEW,0.00,0.0,WeatherDisplay:10.37,2013-11-02 17:02:00,
2013-11-02 12:07:00,79.5,52.4,29.92,NNW,338,3.5,3.8,39,0.00,CLR,FEW,0.00,0.0,WeatherDisplay:10.37,2013-11-02 17:07:00,
2013-11-02 12:12:00,79.3,52.2,29.89,NNE,22,3.5,3.5,39,0.00,CLR,FEW,0.00,0.0,WeatherDisplay:10.37,2013-11-02 17:12:00,
2013-11-02 12:17:00,79.3,50.8,29.89,NNW,338,2.3,2.4,37,0.00,CLR,FEW,0.00,0.0,WeatherDisplay:10.37,2013-11-02 17:17:00,
2013-11-02 12:22:00,79.5,50.2,29.89,WNW,292,3.6,3.6,36,0.00,CLR,FEW,0.00,0.0,WeatherDisplay:10.37,2013-11-02 17:22:00,
2013-11-02 12:27:00,79.0,50.5,29.89,NNW,338,3.5,3.5,37,0.00,CLR,FEW,0.00,0.0,WeatherDisplay:10.37,2013-11-02 17:27:00,
2013-11-02 12:32:00,79.2,49.9,29.89,North,0,5.8,5.8,36,0.00,CLR,FEW,0.00,0.0,WeatherDisplay:10.37,2013-11-02 17:32:00,
2013-11-02 12:37:00,79.2,50.6,29.89,NNE,22,3.5,3.5,37,0.00,CLR,FEW,0.00,0.0,WeatherDisplay:10.37,2013-11-02 17:37:00,
2013-11-02 12:42:00,79.5,50.2,29.89,NNE,22,5.8,5.8,36,0.00,CLR,FEW,0.00,0.0,WeatherDisplay:10.37,2013-11-02 17:42:00,
2013-11-02 12:47:00,79.2,49.9,29.89,NNW,338,4.6,4.6,36,0.00,CLR,FEW,0.00,0.0,WeatherDisplay:10.37,2013-11-02 17:47:00,
2013-11-02 12:52:00,79.3,50.8,29.89,NW,315,3.5,3.5,37,0.00,CLR,FEW,0.00,0.0,WeatherDisplay:10.37,2013-11-02 17:52:00,
2013-11-02 12:57:00,79.5,51.0,29.86,West,270,4.6,4.6,37,0.00,CLR,FEW,0.00,0.0,WeatherDisplay:10.37,2013-11-02 17:57:00,
2013-11-02 13:02:00,79.3,49.3,29.86,NNW,338,5.8,5.8,35,0.00,CLR,FEW,0.00,0.0,WeatherDisplay:10.37,2013-11-02 18:02:00,
2013-11-02 13:07:00,79.2,49.9,29.86,North,0,3.5,3.5,36,0.00,CLR,FEW,0.00,0.0,WeatherDisplay:10.37,2013-11-02 18:07:00,
2013-11-02 13:12:00,79.9,52.0,29.89,NNW,338,2.9,2.9,38,0.00,CLR,FEW,0.00,0.0,WeatherDisplay:10.37,2013-11-02 18:12:00,
2013-11-02 13:17:00,79.7,51.1,29.89,NW,315,3.8,3.8,37,0.00,CLR,FEW,0.00,0.0,WeatherDisplay:10.37,2013-11-02 18:17:00,
2013-11-02 13:22:00,79.5,51.0,29.89,NNE,22,3.6,3.6,37,0.00,CLR,FEW,0.00,0.0,WeatherDisplay:10.37,2013-11-02 18:22:00,
2013-11-02 13:27:00,79.9,52.0,29.86,ESE,112,2.3,2.3,38,0.00,CLR,FEW,0.00,0.0,WeatherDisplay:10.37,2013-11-02 18:27:00,
2013-11-02 13:32:00,80.4,51.8,29.86,NNW,338,2.3,2.3,37,0.00,CLR,FEW,0.00,0.0,WeatherDisplay:10.37,2013-11-02 18:32:00,
2013-11-02 13:37:00,80.1,51.4,29.86,North,0,3.5,3.5,37,0.00,CLR,FEW,0.00,0.0,WeatherDisplay:10.37,2013-11-02 18:37:00,
2013-11-02 13:42:00,79.9,51.3,29.86,North,0,3.5,3.5,37,0.00,CLR,FEW,0.00,0.0,WeatherDisplay:10.37,2013-11-02 18:42:00,
2013-11-02 13:47:00,79.9,51.3,29.86,NW,315,3.5,3.5,37,0.00,CLR,FEW,0.00,0.0,WeatherDisplay:10.37,2013-11-02 18:47:00,
2013-11-02 13:52:00,78.8,50.3,29.86,West,270,3.5,3.5,37,0.00,CLR,FEW,0.00,0.0,WeatherDisplay:10.37,2013-11-02 18:52:00,
2013-11-02 13:57:00,79.0,50.5,29.86,NNE,22,3.5,3.5,37,0.00,CLR,FEW,0.00,0.0,WeatherDisplay:10.37,2013-11-02 18:57:00,
2013-11-02 14:02:00,78.6,50.2,29.86,NNE,22,3.5,3.5,37,0.00,CLR,FEW,0.00,0.0,WeatherDisplay:10.37,2013-11-02 19:02:00,
2013-11-02 14:07:00,78.3,49.8,29.86,NE,45,5.8,5.8,37,0.00,CLR,FEW,0.00,0.0,WeatherDisplay:10.37,2013-11-02 19:07:00,
2013-11-02 14:12:00,78.1,49.7,29.86,North,0,2.3,0.0,37,0.00,CLR,FEW,0.00,0.0,WeatherDisplay:10.37,2013-11-02 19:12:00,
2013-11-02 14:17:00,77.9,49.5,29.86,NE,45,2.3,2.3,37,0.00,CLR,FEW,0.00,0.0,WeatherDisplay:10.37,2013-11-02 19:17:00,
2013-11-02 14:22:00,76.3,48.1,29.86,NNW,338,4.6,4.6,37,0.00,CLR,FEW,0.00,0.0,WeatherDisplay:10.37,2013-11-02 19:22:00,
2013-11-02 14:27:00,75.0,47.7,29.86,ESE,112,2.9,2.9,38,0.00,CLR,FEW,0.00,0.0,WeatherDisplay:10.37,2013-11-02 19:27:00,
2013-11-02 14:32:00,74.3,47.7,29.86,North,0,3.5,3.5,39,0.00,CLR,FEW,0.00,0.0,WeatherDisplay:10.37,2013-11-02 19:32:00,
2013-11-02 14:37:00,73.8,47.3,29.86,West,270,3.5,3.5,39,0.00,CLR,FEW,0.00,0.0,WeatherDisplay:10.37,2013-11-02 19:37:00,
2013-11-02 14:42:00,73.2,44.7,29.86,WNW,292,5.8,5.8,36,0.00,CLR,FEW,0.00,0.0,WeatherDisplay:10.37,2013-11-02 19:42:00,
2013-11-02 14:47:00,72.9,45.8,29.86,NW,315,3.5,3.5,38,0.00,CLR,FEW,0.00,0.0,WeatherDisplay:10.37,2013-11-02 19:47:00,
2013-11-02 14:52:00,72.1,44.4,29.86,NW,315,6.9,6.9,37,0.00,CLR,FEW,0.00,0.0,WeatherDisplay:10.37,2013-11-02 19:52:00,
2013-11-02 14:57:00,71.8,44.8,29.86,North,0,5.8,5.8,38,0.00,CLR,FEW,0.00,0.0,WeatherDisplay:10.37,2013-11-02 19:57:00,
2013-11-02 15:02:00,71.8,44.8,29.86,NW,315,5.8,5.8,38,0.00,CLR,FEW,0.00,0.0,WeatherDisplay:10.37,2013-11-02 20:02:00,
2013-11-02 15:07:00,71.4,44.5,29.86,NW,315,4.6,4.6,38,0.00,CLR,FEW,0.00,0.0,WeatherDisplay:10.37,2013-11-02 20:07:00,
2013-11-02 15:12:00,71.2,45.0,29.86,NNW,338,5.8,5.8,39,0.00,CLR,FEW,0.00,0.0,WeatherDisplay:10.37,2013-11-02 20:12:00,
2013-11-02 15:17:00,71.2,45.7,29.86,NNW,338,3.6,3.6,40,0.00,CLR,FEW,0.00,0.0,WeatherDisplay:10.37,2013-11-02 20:17:00,
2013-11-02 15:22:00,71.1,45.5,29.86,SSE,158,4.6,4.6,40,0.00,CLR,FEW,0.00,0.0,WeatherDisplay:10.37,2013-11-02 20:22:00,
2013-11-02 15:27:00,70.9,45.3,29.86,NNE,22,5.8,5.8,40,0.00,CLR,FEW,0.00,0.0,WeatherDisplay:10.37,2013-11-02 20:27:00,
2013-11-02 15:32:00,70.9,45.3,29.86,North,0,4.6,4.6,40,0.00,CLR,FEW,0.00,0.0,WeatherDisplay:10.37,2013-11-02 20:32:00,
2013-11-02 15:37:00,70.5,45.7,29.86,East,90,3.5,3.5,41,0.00,CLR,FEW,0.00,0.0,WeatherDisplay:10.37,2013-11-02 20:37:00,
2013-11-02 15:42:00,70.7,45.8,29.86,NNW,338,2.9,2.9,41,0.00,CLR,FEW,0.00,0.0,WeatherDisplay:10.37,2013-11-02 20:42:00,
2013-11-02 15:47:00,70.5,45.7,29.86,North,0,4.6,4.6,41,0.00,CLR,FEW,0.00,0.0,WeatherDisplay:10.37,2013-11-02 20:47:00,
2013-11-02 15:52:00,70.5,45.7,29.86,North,0,3.5,3.5,41,0.00,CLR,FEW,0.00,0.0,WeatherDisplay:10.37,2013-11-02 20:52:00,
2013-11-02 15:57:00,70.2,44.7,29.83,North,0,4.6,4.6,40,0.00,CLR,FEW,0.00,0.0,WeatherDisplay:10.37,2013-11-02 20:57:00,
2013-11-02 16:02:00,70.0,44.5,29.83,NNW,338,4.6,4.6,40,0.00,CLR,FEW,0.00,0.0,WeatherDisplay:10.37,2013-11-02 21:02:00,
2013-11-02 16:07:00,69.8,44.4,29.83,North,0,4.6,4.6,40,0.00,CLR,FEW,0.00,0.0,WeatherDisplay:10.37,2013-11-02 21:07:00,
2013-11-02 16:12:00,69.6,44.2,29.86,North,0,3.5,3.5,40,0.00,CLR,FEW,0.00,0.0,WeatherDisplay:10.37,2013-11-02 21:12:00,
2013-11-02 16:17:00,69.4,44.7,29.86,NW,315,3.5,3.5,41,0.00,CLR,FEW,0.00,0.0,WeatherDisplay:10.37,2013-11-02 21:17:00,
2013-11-02 16:22:00,69.4,45.3,29.86,NNW,338,2.6,2.6,42,0.00,CLR,FEW,0.00,0.0,WeatherDisplay:10.37,2013-11-02 21:22:00,
2013-11-02 16:27:00,69.3,44.5,29.86,North,0,4.6,4.6,41,0.00,CLR,FEW,0.00,0.0,WeatherDisplay:10.37,2013-11-02 21:27:00,
2013-11-02 16:32:00,68.7,42.8,29.86,NNW,338,3.5,3.5,39,0.00,CLR,FEW,0.00,0.0,WeatherDisplay:10.37,2013-11-02 21:32:00,
2013-11-02 16:37:00,68.5,42.6,29.86,NNW,338,4.6,4.6,39,0.00,CLR,FEW,0.00,0.0,WeatherDisplay:10.37,2013-11-02 21:37:00,
2013-11-02 16:42:00,68.4,42.4,29.86,NNW,338,4.3,4.3,39,0.00,CLR,FEW,0.00,0.0,WeatherDisplay:10.37,2013-11-02 21:42:00,
2013-11-02 16:47:00,68.2,42.3,29.86,North,0,3.5,3.5,39,0.00,CLR,FEW,0.00,0.0,WeatherDisplay:10.37,2013-11-02 21:47:00,
2013-11-02 16:52:00,68.2,42.9,29.86,NW,315,2.3,2.3,40,0.00,CLR,FEW,0.00,0.0,WeatherDisplay:10.37,2013-11-02 21:52:00,
2013-11-02 16:57:00,67.8,42.6,29.89,North,0,3.5,3.5,40,0.00,CLR,FEW,0.00,0.0,WeatherDisplay:10.37,2013-11-02 21:57:00,
2013-11-02 17:02:00,67.6,43.1,29.89,NNW,338,2.3,2.3,41,0.00,CLR,FEW,0.00,0.0,WeatherDisplay:10.37,2013-11-02 22:02:00,
2013-11-02 17:07:00,67.5,42.9,29.89,NNW,338,2.3,2.3,41,0.00,CLR,FEW,0.00,0.0,WeatherDisplay:10.37,2013-11-02 22:07:00,
2013-11-02 17:12:00,67.3,42.8,29.89,NNE,22,2.3,2.3,41,0.00,CLR,FEW,0.00,0.0,WeatherDisplay:10.37,2013-11-02 22:12:00,
2013-11-02 17:17:00,67.1,43.2,29.89,North,0,2.3,2.3,42,0.00,CLR,FEW,0.00,0.0,WeatherDisplay:10.37,2013-11-02 22:17:00,
2013-11-02 17:22:00,66.9,42.4,29.89,NNW,338,3.5,3.5,41,0.00,CLR,FEW,0.00,0.0,WeatherDisplay:10.37,2013-11-02 22:22:00,
2013-11-02 17:27:00,66.6,42.1,29.89,NNE,22,3.6,3.6,41,0.00,CLR,FEW,0.00,0.0,WeatherDisplay:10.37,2013-11-02 22:27:00,
2013-11-02 17:32:00,66.2,42.4,29.89,NNW,338,3.5,3.5,42,0.00,CLR,FEW,0.00,0.0,WeatherDisplay:10.37,2013-11-02 22:32:00,
2013-11-02 17:37:00,66.0,42.3,29.89,NNE,22,2.3,2.3,42,0.00,CLR,FEW,0.00,0.0,WeatherDisplay:10.37,2013-11-02 22:37:00,
2013-11-02 17:42:00,65.3,41.6,29.89,NNW,338,2.3,2.3,42,0.00,CLR,FEW,0.00,0.0,WeatherDisplay:10.37,2013-11-02 22:42:00,
2013-11-02 17:47:00,64.6,41.6,29.89,NNW,338,0.0,0.0,43,0.00,CLR,FEW,0.00,0.0,WeatherDisplay:10.37,2013-11-02 22:47:00,
2013-11-02 17:52:00,64.0,41.1,29.89,North,0,0.0,0.0,43,0.00,CLR,FEW,0.00,0.0,WeatherDisplay:10.37,2013-11-02 22:52:00,
2013-11-02 17:57:00,63.5,41.2,29.92,NNW,338,1.2,1.2,44,0.00,CLR,FEW,0.00,0.0,WeatherDisplay:10.37,2013-11-02 22:57:00,
2013-11-02 18:02:00,62.8,41.1,29.92,NNW,338,1.2,0.0,45,0.00,CLR,FEW,0.00,0.0,WeatherDisplay:10.37,2013-11-02 23:02:00,
2013-11-02 18:07:00,62.1,41.0,29.92,North,0,0.0,0.0,46,0.00,CLR,FEW,0.00,0.0,WeatherDisplay:10.37,2013-11-02 23:07:00,
2013-11-02 18:12:00,61.5,41.1,29.92,North,0,0.0,0.0,47,0.00,CLR,FEW,0.00,0.0,WeatherDisplay:10.37,2013-11-02 23:12:00,
2013-11-02 18:17:00,60.6,40.8,29.92,NNE,22,0.0,0.0,48,0.00,CLR,FEW,0.00,0.0,WeatherDisplay:10.37,2013-11-02 23:17:00,
2013-11-02 18:22:00,59.9,41.2,29.92,NNE,22,0.0,0.0,50,0.00,CLR,FEW,0.00,0.0,WeatherDisplay:10.37,2013-11-02 23:22:00,
2013-11-02 18:27:00,59.2,42.0,29.92,NNE,22,0.0,0.0,53,0.00,CLR,FEW,0.00,0.0,WeatherDisplay:10.37,2013-11-02 23:27:00,
2013-11-02 18:32:00,58.6,42.5,29.92,NNE,22,0.0,0.0,55,0.00,CLR,FEW,0.00,0.0,WeatherDisplay:10.37,2013-11-02 23:32:00,
2013-11-02 18:35:00,43.5,39.0,30.03,North,349,0.0,1.0,84,0.00,CLR,FEW,0.00,0.0,WeatherDisplay:10.37,2013-11-02 23:35:00,
2013-11-02 18:37:00,58.1,42.0,29.92,NNE,22,0.0,0.0,55,0.00,CLR,FEW,0.00,0.0,WeatherDisplay:10.37,2013-11-02 23:37:00,
2013-11-02 18:40:00,43.5,39.0,30.03,North,354,0.0,1.0,84,0.00,CLR,FEW,0.00,0.0,WeatherDisplay:10.37,2013-11-02 23:40:00,
2013-11-02 18:42:00,57.6,42.0,29.92,NE,45,0.0,0.0,56,0.00,CLR,FEW,0.00,0.0,WeatherDisplay:10.37,2013-11-02 23:42:00,
2013-11-02 18:45:00,43.5,39.3,30.03,North,357,1.0,2.0,85,0.00,CLR,FEW,0.00,0.0,WeatherDisplay:10.37,2013-11-02 23:45:00,
2013-11-02 18:47:00,57.6,42.0,29.92,NNW,338,0.9,0.0,56,0.00,CLR,FEW,0.00,0.0,WeatherDisplay:10.37,2013-11-02 23:47:00,
2013-11-02 18:50:00,43.5,39.3,30.03,North,357,1.0,1.0,85,0.00,CLR,FEW,0.00,0.0,WeatherDisplay:10.37,2013-11-02 23:50:00,
2013-11-02 18:52:00,57.6,41.5,29.92,NNW,338,1.4,1.4,55,0.00,CLR,FEW,0.00,0.0,WeatherDisplay:10.37,2013-11-02 23:52:00,
2013-11-02 18:55:00,43.7,39.5,30.00,North,360,0.0,2.0,85,0.00,CLR,FEW,0.00,0.0,WeatherDisplay:10.37,2013-11-02 23:55:00,
2013-11-02 18:57:00,57.6,41.0,29.89,NNW,338,1.2,1.2,54,0.00,CLR,FEW,0.00,0.0,WeatherDisplay:10.37,2013-11-02 23:57:00,
2013-11-02 19:00:00,43.5,39.6,30.00,North,5,1.0,2.0,86,0.00,CLR,FEW,0.00,0.0,WeatherDisplay:10.37,2013-11-03 00:00:00,
2013-11-02 19:05:00,43.5,39.3,30.00,North,360,0.0,1.0,85,0.00,CLR,FEW,0.00,0.0,WeatherDisplay:10.37,2013-11-03 00:05:00,
2013-11-02 19:06:00,57.7,41.2,29.89,NW,315,1.2,1.2,54,0.00,CLR,FEW,0.00,0.0,WeatherDisplay:10.37,2013-11-03 00:06:00,
2013-11-02 19:10:00,43.5,39.3,30.03,North,349,0.0,1.0,85,0.00,CLR,FEW,0.00,0.0,WeatherDisplay:10.37,2013-11-03 00:10:00,
2013-11-02 19:11:00,57.6,40.5,29.92,NNE,22,1.2,0.0,53,0.00,CLR,FEW,0.00,0.0,WeatherDisplay:10.37,2013-11-03 00:11:00,
2013-11-02 19:15:00,43.5,39.6,30.03,North,7,0.0,2.0,86,0.00,CLR,FEW,0.00,0.0,WeatherDisplay:10.37,2013-11-03 00:15:00,
2013-11-02 19:16:00,57.0,40.0,29.92,NNE,22,0.0,0.0,53,0.00,CLR,FEW,0.00,0.0,WeatherDisplay:10.37,2013-11-03 00:16:00,
2013-11-02 19:20:00,43.3,39.4,30.03,NNE,23,1.0,3.0,86,0.00,CLR,FEW,0.00,0.0,WeatherDisplay:10.37,2013-11-03 00:20:00,
2013-11-02 19:21:00,56.7,39.7,29.92,North,0,1.2,0.0,53,0.00,CLR,FEW,0.00,0.0,WeatherDisplay:10.37,2013-11-03 00:21:00,
2013-11-02 19:25:00,43.3,39.4,30.03,North,10,0.0,1.0,86,0.00,CLR,FEW,0.00,0.0,WeatherDisplay:10.37,2013-11-03 00:25:00,
2013-11-02 19:26:00,56.5,39.5,29.95,NNW,338,0.0,0.0,53,0.00,CLR,FEW,0.00,0.0,WeatherDisplay:10.37,2013-11-03 00:26:00,
2013-11-02 19:30:00,43.2,39.3,30.03,NNE,21,1.0,2.0,86,0.00,CLR,FEW,0.00,0.0,WeatherDisplay:10.37,2013-11-03 00:30:00,
2013-11-02 19:31:00,56.3,39.4,29.95,NNW,338,1.2,1.2,53,0.00,CLR,FEW,0.00,0.0,WeatherDisplay:10.37,2013-11-03 00:31:00,
2013-11-02 19:35:00,43.0,39.1,30.03,NNE,25,0.0,2.0,86,0.00,CLR,FEW,0.00,0.0,WeatherDisplay:10.37,2013-11-03 00:35:00,
2013-11-02 19:36:00,56.3,39.4,29.95,NNW,338,0.0,0.0,53,0.00,CLR,FEW,0.00,0.0,WeatherDisplay:10.37,2013-11-03 00:36:00,
2013-11-02 19:40:00,43.0,39.1,30.03,North,8,1.0,3.0,86,0.00,CLR,FEW,0.00,0.0,WeatherDisplay:10.37,2013-11-03 00:40:00,
2013-11-02 19:41:00,55.9,39.0,29.95,NNW,338,0.0,0.0,53,0.00,CLR,FEW,0.00,0.0,WeatherDisplay:10.37,2013-11-03 00:41:00,
2013-11-02 19:45:00,43.0,39.1,30.03,North,10,1.0,2.0,86,0.00,CLR,FEW,0.00,0.0,WeatherDisplay:10.37,2013-11-03 00:45:00,
2013-11-02 19:46:00,55.8,39.4,29.95,NNW,338,0.0,0.0,54,0.00,CLR,FEW,0.00,0.0,WeatherDisplay:10.37,2013-11-03 00:46:00,
2013-11-02 19:50:00,42.8,38.9,30.03,ENE,70,0.0,0.0,86,0.00,CLR,FEW,0.00,0.0,WeatherDisplay:10.37,2013-11-03 00:50:00,
2013-11-02 19:51:00,55.2,38.9,29.95,NNW,338,0.0,0.0,54,0.00,CLR,FEW,0.00,0.0,WeatherDisplay:10.37,2013-11-03 00:51:00,
2013-11-02 19:55:00,42.6,39.0,30.00,East,98,2.0,2.0,87,0.00,CLR,FEW,0.00,0.0,WeatherDisplay:10.37,2013-11-03 00:55:00,
2013-11-02 19:56:00,54.9,39.0,29.98,North,0,0.0,0.0,55,0.00,CLR,FEW,0.00,0.0,WeatherDisplay:10.37,2013-11-03 00:56:00,
2013-11-02 20:00:00,42.6,39.0,30.00,NNE,30,0.0,0.0,87,0.00,CLR,FEW,0.00,0.0,WeatherDisplay:10.37,2013-11-03 01:00:00,
2013-11-02 20:01:00,54.7,39.7,29.98,North,0,0.0,0.0,57,0.00,CLR,FEW,0.00,0.0,WeatherDisplay:10.37,2013-11-03 01:01:00,
2013-11-02 20:05:00,42.4,38.8,30.00,NNE,20,0.0,1.0,87,0.00,CLR,FEW,0.00,0.0,WeatherDisplay:10.37,2013-11-03 01:05:00,
2013-11-02 20:06:00,54.5,39.1,29.98,NNW,338,0.0,0.0,56,0.00,CLR,FEW,0.00,0.0,WeatherDisplay:10.37,2013-11-03 01:06:00,
2013-11-02 20:10:00,42.3,38.7,30.03,NNE,15,0.0,2.0,87,0.00,CLR,FEW,0.00,0.0,WeatherDisplay:10.37,2013-11-03 01:10:00,
2013-11-02 20:11:00,54.1,38.8,29.95,NNW,338,0.0,0.0,56,0.00,CLR,FEW,0.00,0.0,WeatherDisplay:10.37,2013-11-03 01:11:00,
2013-11-02 20:15:00,42.3,38.7,30.03,North,354,1.0,2.0,87,0.00,CLR,FEW,0.00,0.0,WeatherDisplay:10.37,2013-11-03 01:15:00,
2013-11-02 20:16:00,53.8,38.9,29.95,NNW,338,0.0,0.0,57,0.00,CLR,FEW,0.00,0.0,WeatherDisplay:10.37,2013-11-03 01:16:00,
2013-11-02 20:20:00,42.3,39.0,30.03,North,3,0.0,1.0,88,0.00,CLR,FEW,0.00,0.0,WeatherDisplay:10.37,2013-11-03 01:20:00,
2013-11-02 20:21:00,53.4,39.0,29.95,NNW,338,0.0,0.0,58,0.00,CLR,FEW,0.00,0.0,WeatherDisplay:10.37,2013-11-03 01:21:00,
2013-11-02 20:25:00,42.1,38.8,30.03,North,3,0.0,1.0,88,0.00,CLR,FEW,0.00,0.0,WeatherDisplay:10.37,2013-11-03 01:25:00,
2013-11-02 20:26:00,53.8,38.9,29.98,North,0,2.3,2.3,57,0.00,CLR,FEW,0.00,0.0,WeatherDisplay:10.37,2013-11-03 01:26:00,
2013-11-02 20:30:00,41.9,38.6,30.03,NNW,330,0.0,1.0,88,0.00,CLR,FEW,0.00,0.0,WeatherDisplay:10.37,2013-11-03 01:30:00,
2013-11-02 20:31:00,54.0,39.1,29.98,NE,45,2.3,2.3,57,0.00,CLR,FEW,0.00,0.0,WeatherDisplay:10.37,2013-11-03 01:31:00,
2013-11-02 20:35:00,41.7,38.7,30.03,NW,315,0.0,0.0,89,0.00,CLR,FEW,0.00,0.0,WeatherDisplay:10.37,2013-11-03 01:35:00,
2013-11-02 20:36:00,54.3,39.4,29.98,NNW,338,1.2,0.0,57,0.00,CLR,FEW,0.00,0.0,WeatherDisplay:10.37,2013-11-03 01:36:00,
2013-11-02 20:40:00,41.4,38.1,30.06,NNW,343,0.0,1.0,88,0.00,CLR,FEW,0.00,0.0,WeatherDisplay:10.37,2013-11-03 01:40:00,
2013-11-02 20:41:00,54.3,39.4,29.98,NNW,338,0.0,0.0,57,0.00,CLR,FEW,0.00,0.0,WeatherDisplay:10.37,2013-11-03 01:41:00,
2013-11-02 20:45:00,41.4,38.4,30.06,NNE,29,0.0,0.0,89,0.00,CLR,FEW,0.00,0.0,WeatherDisplay:10.37,2013-11-03 01:45:00,
2013-11-02 20:46:00,54.3,39.4,29.98,NNE,22,0.0,0.0,57,0.00,CLR,FEW,0.00,0.0,WeatherDisplay:10.37,2013-11-03 01:46:00,
2013-11-02 20:50:00,41.2,38.5,30.06,NNE,31,0.0,1.0,90,0.00,CLR,FEW,0.00,0.0,WeatherDisplay:10.37,2013-11-03 01:50:00,
2013-11-02 20:51:00,54.1,38.8,29.98,NW,315,0.0,0.0,56,0.00,CLR,FEW,0.00,0.0,WeatherDisplay:10.37,2013-11-03 01:51:00,
2013-11-02 20:55:00,41.0,38.3,30.03,NNE,25,0.0,0.0,90,0.00,CLR,FEW,0.00,0.0,WeatherDisplay:10.37,2013-11-03 01:55:00,
2013-11-02 20:56:00,54.0,38.6,29.95,NW,315,0.0,0.0,56,0.00,CLR,FEW,0.00,0.0,WeatherDisplay:10.37,2013-11-03 01:56:00,
2013-11-02 21:00:00,40.8,38.1,30.03,NNE,31,0.0,0.0,90,0.00,CLR,FEW,0.00,0.0,WeatherDisplay:10.37,2013-11-03 02:00:00,
2013-11-02 21:01:00,54.0,39.5,29.95,NW,315,1.2,0.0,58,0.00,CLR,FEW,0.00,0.0,WeatherDisplay:10.37,2013-11-03 02:01:00,
2013-11-02 21:06:00,53.8,38.9,29.95,WNW,292,0.0,0.0,57,0.00,CLR,FEW,0.00,0.0,WeatherDisplay:10.37,2013-11-03 02:06:00,
2013-11-02 21:11:00,53.8,38.9,29.98,NNE,22,2.3,2.3,57,0.00,CLR,FEW,0.00,0.0,WeatherDisplay:10.37,2013-11-03 02:11:00,
2013-11-02 21:16:00,54.0,39.5,29.98,NE,45,1.2,1.2,58,0.00,CLR,FEW,0.00,0.0,WeatherDisplay:10.37,2013-11-03 02:16:00,
2013-11-02 21:21:00,54.0,39.1,29.98,NW,315,1.2,1.2,57,0.00,CLR,FEW,0.00,0.0,WeatherDisplay:10.37,2013-11-03 02:21:00,
2013-11-02 21:26:00,54.0,39.1,29.98,North,0,1.2,1.4,57,0.00,CLR,FEW,0.00,0.0,WeatherDisplay:10.37,2013-11-03 02:26:00,
2013-11-02 21:31:00,54.0,39.5,29.98,NNW,338,2.3,2.3,58,0.00,CLR,FEW,0.00,0.0,WeatherDisplay:10.37,2013-11-03 02:31:00,
2013-11-02 21:36:00,54.0,39.5,29.98,North,0,1.2,0.0,58,0.00,CLR,FEW,0.00,0.0,WeatherDisplay:10.37,2013-11-03 02:36:00,
2013-11-02 21:41:00,53.8,39.3,29.98,NE,45,2.3,0.0,58,0.00,CLR,FEW,0.00,0.0,WeatherDisplay:10.37,2013-11-03 02:41:00,
2013-11-02 21:45:00,43.3,41.7,30.00,ENE,57,1.0,1.0,94,0.00,CLR,FEW,0.00,0.0,WeatherDisplay:10.37,2013-11-03 02:45:00,
2013-11-02 21:46:00,53.8,39.3,29.98,SSW,202,0.0,0.0,58,0.00,CLR,FEW,0.00,0.0,WeatherDisplay:10.37,2013-11-03 02:46:00,
2013-11-02 21:51:00,53.4,39.4,29.98,NW,315,2.3,0.0,59,0.00,CLR,FEW,0.00,0.0,WeatherDisplay:10.37,2013-11-03 02:51:00,
2013-11-02 21:56:00,53.4,39.4,30.00,NNW,338,1.2,1.6,59,0.00,CLR,FEW,0.00,0.0,WeatherDisplay:10.37,2013-11-03 02:56:00,
2013-11-02 22:01:00,53.4,39.9,30.00,ESE,112,1.6,1.6,60,0.00,CLR,FEW,0.00,0.0,WeatherDisplay:10.37,2013-11-03 03:01:00,
2013-11-02 22:06:00,53.4,39.9,30.00,NW,315,1.2,0.0,60,0.00,CLR,FEW,0.00,0.0,WeatherDisplay:10.37,2013-11-03 03:06:00,
2013-11-02 22:11:00,53.4,39.9,30.00,NNW,338,1.2,0.0,60,0.00,CLR,FEW,0.00,0.0,WeatherDisplay:10.37,2013-11-03 03:11:00,
2013-11-02 22:16:00,53.1,40.0,30.00,NNW,338,1.2,0.0,61,0.00,CLR,FEW,0.00,0.0,WeatherDisplay:10.37,2013-11-03 03:16:00,
2013-11-02 22:21:00,53.1,40.0,30.00,NE,45,2.4,2.4,61,0.00,CLR,FEW,0.00,0.0,WeatherDisplay:10.37,2013-11-03 03:21:00,
2013-11-02 22:26:00,53.1,40.0,30.00,North,0,1.2,1.4,61,0.00,CLR,FEW,0.00,0.0,WeatherDisplay:10.37,2013-11-03 03:26:00,
2013-11-02 22:31:00,52.9,40.2,30.00,NE,45,1.4,1.4,62,0.00,CLR,FEW,0.00,0.0,WeatherDisplay:10.37,2013-11-03 03:31:00,
2013-11-02 22:36:00,52.9,40.2,30.00,SSE,158,2.0,0.0,62,0.00,CLR,FEW,0.00,0.0,WeatherDisplay:10.37,2013-11-03 03:36:00,
2013-11-02 22:41:00,52.9,40.2,30.00,North,0,1.6,1.6,62,0.00,CLR,FEW,0.00,0.0,WeatherDisplay:10.37,2013-11-03 03:41:00,
2013-11-02 22:46:00,52.7,40.0,30.00,North,0,2.3,2.3,62,0.00,CLR,FEW,0.00,0.0,WeatherDisplay:10.37,2013-11-03 03:46:00,
2013-11-02 22:51:00,52.7,40.0,30.00,NW,315,1.2,1.2,62,0.00,CLR,FEW,0.00,0.0,WeatherDisplay:10.37,2013-11-03 03:51:00,
2013-11-02 22:56:00,52.5,39.9,30.00,NNW,338,2.3,0.0,62,0.00,CLR,FEW,0.00,0.0,WeatherDisplay:10.37,2013-11-03 03:56:00,
2013-11-02 23:01:00,52.5,39.9,30.00,NNW,338,2.3,2.3,62,0.00,CLR,FEW,0.00,0.0,WeatherDisplay:10.37,2013-11-03 04:01:00,
2013-11-02 23:06:00,52.3,39.7,30.00,NNE,22,1.2,0.0,62,0.00,CLR,FEW,0.00,0.0,WeatherDisplay:10.37,2013-11-03 04:06:00,
2013-11-02 23:11:00,52.2,39.9,30.00,NW,315,1.2,0.0,63,0.00,CLR,FEW,0.00,0.0,WeatherDisplay:10.37,2013-11-03 04:11:00,
2013-11-02 23:16:00,51.8,39.6,30.00,SSW,202,2.3,0.0,63,0.00,CLR,FEW,0.00,0.0,WeatherDisplay:10.37,2013-11-03 04:16:00,
2013-11-02 23:21:00,51.6,39.0,30.00,East,90,2.3,0.0,62,0.00,CLR,FEW,0.00,0.0,WeatherDisplay:10.37,2013-11-03 04:21:00,
2013-11-02 23:26:00,51.4,39.3,30.00,North,0,2.3,2.3,63,0.00,CLR,FEW,0.00,0.0,WeatherDisplay:10.37,2013-11-03 04:26:00,
2013-11-02 23:31:00,51.6,39.4,30.00,NE,45,2.6,0.0,63,0.00,CLR,FEW,0.00,0.0,WeatherDisplay:10.37,2013-11-03 04:31:00,
2013-11-02 23:36:00,51.6,39.4,30.00,NW,315,3.5,3.5,63,0.00,CLR,FEW,0.00,0.0,WeatherDisplay:10.37,2013-11-03 04:36:00,
2013-11-02 23:41:00,51.6,39.4,30.00,NNW,338,1.4,1.4,63,0.00,CLR,FEW,0.00,0.0,WeatherDisplay:10.37,2013-11-03 04:41:00,
2013-11-02 23:46:00,51.3,39.5,30.00,SSW,202,1.6,1.6,64,0.00,CLR,FEW,0.00,0.0,WeatherDisplay:10.37,2013-11-03 04:46:00,
2013-11-02 23:51:00,51.1,39.3,30.00,NNE,22,2.6,2.6,64,0.00,CLR,FEW,0.00,0.0,WeatherDisplay:10.37,2013-11-03 04:51:00,
2013-11-02 23:56:00,51.1,39.3,30.00,SSW,202,2.3,0.0,64,0.00,CLR,FEW,0.00,0.0,WeatherDisplay:10.37,2013-11-03 04:56:00,